sensor_id;sensor_type;location;lat;lon;timestamp;P1;durP1;ratioP1;P2;durP2;ratioP2
61473;SDS011;53694;49.784;30.150;2022-12-18T02:25:13;25.96;;;13.64;;
61473;SDS011;53694;49.784;30.150;2022-12-18T02:26:37;22.15;;;10.94;;
61473;SDS011;53694;49.784;30.150;2022-12-18T02:27:41;19.27;;;10.71;;
61473;SDS011;53694;49.784;30.150;2022-12-18T02:28:50;16.59;;;8.85;;
61473;SDS011;53694;49.784;30.150;2022-12-18T02:29:59;15.64;;;7.62;;
61473;SDS011;53694;49.784;30.150;2022-12-18T02:31:04;13.80;;;7.51;;
61473;SDS011;53694;49.784;30.150;2022-12-18T02:32:11;15.24;;;8.16;;
61473;SDS011;53694;49.784;30.150;2022-12-18T02:33:14;16.23;;;7.68;;
61473;SDS011;53694;49.784;30.150;2022-12-18T02:34:17;14.09;;;7.53;;
61473;SDS011;53694;49.784;30.150;2022-12-18T02:35:24;14.95;;;7.78;;
61473;SDS011;53694;49.784;30.150;2022-12-18T02:36:28;16.26;;;7.96;;
61473;SDS011;53694;49.784;30.150;2022-12-18T02:37:33;16.24;;;7.88;;
61473;SDS011;53694;49.784;30.150;2022-12-18T02:38:36;13.22;;;6.48;;
61473;SDS011;53694;49.784;30.150;2022-12-18T02:39:40;14.22;;;5.96;;
61473;SDS011;53694;49.784;30.150;2022-12-18T02:40:44;15.02;;;7.76;;
61473;SDS011;53694;49.784;30.150;2022-12-18T02:41:47;13.75;;;6.93;;
61473;SDS011;53694;49.784;30.150;2022-12-18T02:42:49;13.36;;;6.97;;
61473;SDS011;53694;49.784;30.150;2022-12-18T02:43:59;15.04;;;6.78;;
61473;SDS011;53694;49.784;30.150;2022-12-18T02:45:02;15.61;;;8.02;;
61473;SDS011;53694;49.784;30.150;2022-12-18T02:46:24;17.35;;;7.81;;
61473;SDS011;53694;49.784;30.150;2022-12-18T02:47:27;16.59;;;7.83;;
61473;SDS011;53694;49.784;30.150;2022-12-18T02:48:32;17.37;;;8.30;;
61473;SDS011;53694;49.784;30.150;2022-12-18T02:51:20;22.01;;;10.73;;
61473;SDS011;53694;49.784;30.150;2022-12-18T02:53:45;18.37;;;8.39;;
61473;SDS011;53694;49.784;30.150;2022-12-18T02:54:52;15.97;;;8.00;;
61473;SDS011;53694;49.784;30.150;2022-12-18T02:56:19;15.21;;;8.31;;
61473;SDS011;53694;49.784;30.150;2022-12-18T02:59:57;15.60;;;8.81;;
61473;SDS011;53694;49.784;30.150;2022-12-18T03:01:02;18.33;;;7.37;;
61473;SDS011;53694;49.784;30.150;2022-12-18T03:03:24;17.77;;;8.09;;
61473;SDS011;53694;49.784;30.150;2022-12-18T03:04:37;15.96;;;7.78;;
61473;SDS011;53694;49.784;30.150;2022-12-18T03:05:52;14.98;;;7.42;;
61473;SDS011;53694;49.784;30.150;2022-12-18T03:06:57;15.54;;;8.09;;
61473;SDS011;53694;49.784;30.150;2022-12-18T03:08:06;15.02;;;7.68;;
61473;SDS011;53694;49.784;30.150;2022-12-18T03:09:11;16.46;;;8.30;;
61473;SDS011;53694;49.784;30.150;2022-12-18T03:10:16;18.37;;;9.49;;
61473;SDS011;53694;49.784;30.150;2022-12-18T03:11:23;19.71;;;9.67;;
61473;SDS011;53694;49.784;30.150;2022-12-18T03:12:30;19.83;;;10.36;;
61473;SDS011;53694;49.784;30.150;2022-12-18T03:13:34;19.62;;;10.62;;
61473;SDS011;53694;49.784;30.150;2022-12-18T03:14:41;20.11;;;10.23;;
61473;SDS011;53694;49.784;30.150;2022-12-18T03:15:48;17.64;;;8.81;;
61473;SDS011;53694;49.784;30.150;2022-12-18T03:16:53;15.55;;;8.06;;
61473;SDS011;53694;49.784;30.150;2022-12-18T03:17:59;16.95;;;8.47;;
61473;SDS011;53694;49.784;30.150;2022-12-18T03:19:08;17.60;;;9.14;;
61473;SDS011;53694;49.784;30.150;2022-12-18T03:20:15;15.34;;;7.01;;
61473;SDS011;53694;49.784;30.150;2022-12-18T03:21:20;15.31;;;7.96;;
61473;SDS011;53694;49.784;30.150;2022-12-18T03:22:24;13.91;;;6.49;;
61473;SDS011;53694;49.784;30.150;2022-12-18T03:23:31;15.22;;;7.75;;
61473;SDS011;53694;49.784;30.150;2022-12-18T03:24:38;14.55;;;7.97;;
61473;SDS011;53694;49.784;30.150;2022-12-18T03:25:41;15.24;;;8.23;;
61473;SDS011;53694;49.784;30.150;2022-12-18T03:26:46;14.55;;;7.17;;
61473;SDS011;53694;49.784;30.150;2022-12-18T03:27:51;17.02;;;7.71;;
61473;SDS011;53694;49.784;30.150;2022-12-18T03:28:57;16.05;;;8.46;;
61473;SDS011;53694;49.784;30.150;2022-12-18T03:30:05;13.97;;;7.27;;
61473;SDS011;53694;49.784;30.150;2022-12-18T03:31:09;15.70;;;8.93;;
61473;SDS011;53694;49.784;30.150;2022-12-18T03:32:19;17.63;;;9.46;;
61473;SDS011;53694;49.784;30.150;2022-12-18T03:33:47;21.19;;;9.78;;
61473;SDS011;53694;49.784;30.150;2022-12-18T03:34:55;23.38;;;10.87;;
61473;SDS011;53694;49.784;30.150;2022-12-18T03:35:59;19.43;;;9.93;;
61473;SDS011;53694;49.784;30.150;2022-12-18T03:37:02;18.93;;;8.99;;
61473;SDS011;53694;49.784;30.150;2022-12-18T03:38:04;17.76;;;8.37;;
61473;SDS011;53694;49.784;30.150;2022-12-18T03:39:06;15.25;;;8.17;;
61473;SDS011;53694;49.784;30.150;2022-12-18T03:40:08;16.66;;;7.28;;
61473;SDS011;53694;49.784;30.150;2022-12-18T03:45:23;11.29;;;6.04;;
61473;SDS011;53694;49.784;30.150;2022-12-18T03:46:31;12.71;;;6.14;;
61473;SDS011;53694;49.784;30.150;2022-12-18T03:47:44;12.88;;;6.43;;
61473;SDS011;53694;49.784;30.150;2022-12-18T03:48:56;15.39;;;7.16;;
61473;SDS011;53694;49.784;30.150;2022-12-18T03:50:18;18.41;;;7.59;;
61473;SDS011;53694;49.784;30.150;2022-12-18T03:51:26;18.21;;;8.19;;
61473;SDS011;53694;49.784;30.150;2022-12-18T03:52:30;16.44;;;8.68;;
61473;SDS011;53694;49.784;30.150;2022-12-18T03:53:37;18.07;;;8.85;;
61473;SDS011;53694;49.784;30.150;2022-12-18T03:54:52;17.43;;;8.78;;
61473;SDS011;53694;49.784;30.150;2022-12-18T03:55:56;18.20;;;9.75;;
61473;SDS011;53694;49.784;30.150;2022-12-18T03:57:04;21.22;;;10.39;;
61473;SDS011;53694;49.784;30.150;2022-12-18T03:58:07;19.09;;;10.04;;
61473;SDS011;53694;49.784;30.150;2022-12-18T03:59:11;19.79;;;9.72;;
61473;SDS011;53694;49.784;30.150;2022-12-18T04:00:16;18.34;;;8.68;;
61473;SDS011;53694;49.784;30.150;2022-12-18T04:01:20;13.26;;;6.96;;
61473;SDS011;53694;49.784;30.150;2022-12-18T04:02:24;16.72;;;7.78;;
61473;SDS011;53694;49.784;30.150;2022-12-18T04:03:25;14.87;;;7.76;;
61473;SDS011;53694;49.784;30.150;2022-12-18T04:04:30;16.13;;;8.04;;
61473;SDS011;53694;49.784;30.150;2022-12-18T04:05:34;14.14;;;6.68;;
61473;SDS011;53694;49.784;30.150;2022-12-18T04:06:37;14.38;;;7.08;;
61473;SDS011;53694;49.784;30.150;2022-12-18T04:07:41;13.98;;;7.05;;
61473;SDS011;53694;49.784;30.150;2022-12-18T04:08:44;13.99;;;7.91;;
61473;SDS011;53694;49.784;30.150;2022-12-18T04:09:48;15.02;;;7.85;;
61473;SDS011;53694;49.784;30.150;2022-12-18T04:10:52;18.28;;;8.96;;
61473;SDS011;53694;49.784;30.150;2022-12-18T04:11:54;14.23;;;8.21;;
61473;SDS011;53694;49.784;30.150;2022-12-18T04:12:55;16.26;;;9.50;;
61473;SDS011;53694;49.784;30.150;2022-12-18T04:13:58;18.12;;;9.21;;
61473;SDS011;53694;49.784;30.150;2022-12-18T04:15:00;20.29;;;11.81;;
61473;SDS011;53694;49.784;30.150;2022-12-18T04:16:02;20.54;;;10.95;;
61473;SDS011;53694;49.784;30.150;2022-12-18T04:17:04;19.48;;;10.75;;
61473;SDS011;53694;49.784;30.150;2022-12-18T04:18:05;19.71;;;10.67;;
61473;SDS011;53694;49.784;30.150;2022-12-18T04:19:07;16.36;;;7.86;;
61473;SDS011;53694;49.784;30.150;2022-12-18T04:20:09;14.55;;;8.21;;
61473;SDS011;53694;49.784;30.150;2022-12-18T04:21:11;15.99;;;8.34;;
61473;SDS011;53694;49.784;30.150;2022-12-18T04:22:12;17.69;;;8.15;;
61473;SDS011;53694;49.784;30.150;2022-12-18T04:23:14;14.89;;;7.01;;
61473;SDS011;53694;49.784;30.150;2022-12-18T04:24:15;15.09;;;7.06;;
61473;SDS011;53694;49.784;30.150;2022-12-18T04:25:17;13.42;;;7.98;;
61473;SDS011;53694;49.784;30.150;2022-12-18T04:26:18;12.30;;;6.31;;
61473;SDS011;53694;49.784;30.150;2022-12-18T04:27:20;16.20;;;7.29;;
61473;SDS011;53694;49.784;30.150;2022-12-18T04:28:22;14.65;;;7.97;;
61473;SDS011;53694;49.784;30.150;2022-12-18T04:29:23;14.72;;;7.74;;
61473;SDS011;53694;49.784;30.150;2022-12-18T04:30:25;16.98;;;8.62;;
61473;SDS011;53694;49.784;30.150;2022-12-18T04:31:27;16.07;;;8.54;;
61473;SDS011;53694;49.784;30.150;2022-12-18T04:32:28;20.26;;;9.67;;
61473;SDS011;53694;49.784;30.150;2022-12-18T04:33:30;19.12;;;9.28;;
61473;SDS011;53694;49.784;30.150;2022-12-18T04:34:31;19.10;;;9.11;;
61473;SDS011;53694;49.784;30.150;2022-12-18T04:35:33;20.39;;;10.14;;
61473;SDS011;53694;49.784;30.150;2022-12-18T04:36:34;19.69;;;9.61;;
61473;SDS011;53694;49.784;30.150;2022-12-18T04:37:35;18.91;;;9.69;;
61473;SDS011;53694;49.784;30.150;2022-12-18T04:38:37;17.80;;;8.55;;
61473;SDS011;53694;49.784;30.150;2022-12-18T04:39:39;13.09;;;6.07;;
61473;SDS011;53694;49.784;30.150;2022-12-18T04:40:41;15.83;;;7.21;;
61473;SDS011;53694;49.784;30.150;2022-12-18T04:41:42;14.63;;;7.16;;
61473;SDS011;53694;49.784;30.150;2022-12-18T04:42:44;14.91;;;7.32;;
61473;SDS011;53694;49.784;30.150;2022-12-18T04:43:45;12.11;;;6.32;;
61473;SDS011;53694;49.784;30.150;2022-12-18T04:44:47;14.01;;;6.28;;
61473;SDS011;53694;49.784;30.150;2022-12-18T04:45:48;14.47;;;7.13;;
61473;SDS011;53694;49.784;30.150;2022-12-18T04:46:50;12.53;;;6.72;;
61473;SDS011;53694;49.784;30.150;2022-12-18T04:47:52;16.46;;;7.60;;
61473;SDS011;53694;49.784;30.150;2022-12-18T04:48:53;14.19;;;7.64;;
61473;SDS011;53694;49.784;30.150;2022-12-18T04:49:55;15.61;;;8.54;;
61473;SDS011;53694;49.784;30.150;2022-12-18T04:50:56;19.05;;;8.66;;
61473;SDS011;53694;49.784;30.150;2022-12-18T04:51:58;16.80;;;8.99;;
61473;SDS011;53694;49.784;30.150;2022-12-18T04:52:59;18.78;;;9.30;;
61473;SDS011;53694;49.784;30.150;2022-12-18T04:54:01;15.33;;;7.71;;
61473;SDS011;53694;49.784;30.150;2022-12-18T04:55:03;16.03;;;8.34;;
61473;SDS011;53694;49.784;30.150;2022-12-18T04:56:06;16.20;;;8.57;;
61473;SDS011;53694;49.784;30.150;2022-12-18T04:57:13;12.77;;;6.66;;
61473;SDS011;53694;49.784;30.150;2022-12-18T04:58:15;15.05;;;7.79;;
61473;SDS011;53694;49.784;30.150;2022-12-18T04:59:17;14.15;;;6.72;;
61473;SDS011;53694;49.784;30.150;2022-12-18T05:00:18;16.84;;;7.46;;
61473;SDS011;53694;49.784;30.150;2022-12-18T05:01:21;16.15;;;7.45;;
61473;SDS011;53694;49.784;30.150;2022-12-18T05:02:22;13.24;;;6.89;;
61473;SDS011;53694;49.784;30.150;2022-12-18T05:03:24;14.67;;;7.12;;
61473;SDS011;53694;49.784;30.150;2022-12-18T05:04:26;13.62;;;6.20;;
61473;SDS011;53694;49.784;30.150;2022-12-18T05:05:27;12.31;;;6.64;;
61473;SDS011;53694;49.784;30.150;2022-12-18T05:06:29;15.59;;;8.47;;
61473;SDS011;53694;49.784;30.150;2022-12-18T05:07:30;17.26;;;8.20;;
61473;SDS011;53694;49.784;30.150;2022-12-18T05:08:32;17.40;;;8.64;;
61473;SDS011;53694;49.784;30.150;2022-12-18T05:09:34;18.17;;;9.24;;
61473;SDS011;53694;49.784;30.150;2022-12-18T05:10:35;18.91;;;9.03;;
61473;SDS011;53694;49.784;30.150;2022-12-18T05:11:37;17.91;;;8.52;;
61473;SDS011;53694;49.784;30.150;2022-12-18T05:12:38;21.70;;;10.25;;
61473;SDS011;53694;49.784;30.150;2022-12-18T05:13:41;21.03;;;10.77;;
61473;SDS011;53694;49.784;30.150;2022-12-18T05:14:43;20.86;;;9.99;;
61473;SDS011;53694;49.784;30.150;2022-12-18T05:15:50;17.82;;;9.36;;
61473;SDS011;53694;49.784;30.150;2022-12-18T05:16:50;16.33;;;8.20;;
61473;SDS011;53694;49.784;30.150;2022-12-18T05:17:52;15.80;;;8.10;;
61473;SDS011;53694;49.784;30.150;2022-12-18T05:18:53;15.30;;;7.87;;
61473;SDS011;53694;49.784;30.150;2022-12-18T05:19:55;12.96;;;6.90;;
61473;SDS011;53694;49.784;30.150;2022-12-18T05:20:56;13.69;;;7.37;;
61473;SDS011;53694;49.784;30.150;2022-12-18T05:21:58;14.66;;;7.46;;
61473;SDS011;53694;49.784;30.150;2022-12-18T05:23:00;12.66;;;6.68;;
61473;SDS011;53694;49.784;30.150;2022-12-18T05:24:01;13.94;;;6.86;;
61473;SDS011;53694;49.784;30.150;2022-12-18T05:25:03;13.34;;;7.44;;
61473;SDS011;53694;49.784;30.150;2022-12-18T05:26:06;16.29;;;7.86;;
61473;SDS011;53694;49.784;30.150;2022-12-18T05:27:08;14.48;;;7.12;;
61473;SDS011;53694;49.784;30.150;2022-12-18T05:28:09;15.61;;;8.17;;
61473;SDS011;53694;49.784;30.150;2022-12-18T05:29:11;19.48;;;9.45;;
61473;SDS011;53694;49.784;30.150;2022-12-18T05:30:13;18.31;;;9.44;;
61473;SDS011;53694;49.784;30.150;2022-12-18T05:31:16;21.64;;;10.10;;
61473;SDS011;53694;49.784;30.150;2022-12-18T05:32:17;18.77;;;8.36;;
61473;SDS011;53694;49.784;30.150;2022-12-18T05:33:19;19.99;;;8.90;;
61473;SDS011;53694;49.784;30.150;2022-12-18T05:34:22;17.61;;;8.73;;
61473;SDS011;53694;49.784;30.150;2022-12-18T05:35:24;20.20;;;10.27;;
61473;SDS011;53694;49.784;30.150;2022-12-18T05:36:26;13.91;;;6.79;;
61473;SDS011;53694;49.784;30.150;2022-12-18T05:37:27;15.59;;;8.02;;
61473;SDS011;53694;49.784;30.150;2022-12-18T05:38:29;14.61;;;7.31;;
61473;SDS011;53694;49.784;30.150;2022-12-18T05:39:32;12.14;;;6.54;;
61473;SDS011;53694;49.784;30.150;2022-12-18T05:40:33;16.31;;;7.31;;
61473;SDS011;53694;49.784;30.150;2022-12-18T05:41:34;15.33;;;7.13;;
61473;SDS011;53694;49.784;30.150;2022-12-18T05:42:36;15.56;;;6.41;;
61473;SDS011;53694;49.784;30.150;2022-12-18T05:43:38;16.44;;;5.73;;
61473;SDS011;53694;49.784;30.150;2022-12-18T05:44:40;13.39;;;6.58;;
61473;SDS011;53694;49.784;30.150;2022-12-18T05:45:42;14.86;;;7.16;;
61473;SDS011;53694;49.784;30.150;2022-12-18T05:46:44;14.87;;;7.49;;
61473;SDS011;53694;49.784;30.150;2022-12-18T05:47:45;17.46;;;8.24;;
61473;SDS011;53694;49.784;30.150;2022-12-18T05:48:46;17.13;;;7.78;;
61473;SDS011;53694;49.784;30.150;2022-12-18T05:49:48;14.99;;;7.53;;
61473;SDS011;53694;49.784;30.150;2022-12-18T05:50:50;17.00;;;8.38;;
61473;SDS011;53694;49.784;30.150;2022-12-18T05:51:52;17.83;;;8.97;;
61473;SDS011;53694;49.784;30.150;2022-12-18T05:52:53;16.73;;;8.26;;
61473;SDS011;53694;49.784;30.150;2022-12-18T05:53:55;13.96;;;6.14;;
61473;SDS011;53694;49.784;30.150;2022-12-18T05:54:56;16.52;;;7.90;;
61473;SDS011;53694;49.784;30.150;2022-12-18T05:56:01;16.91;;;7.99;;
61473;SDS011;53694;49.784;30.150;2022-12-18T05:57:05;15.09;;;6.92;;
61473;SDS011;53694;49.784;30.150;2022-12-18T05:58:07;13.84;;;6.74;;
61473;SDS011;53694;49.784;30.150;2022-12-18T05:59:10;13.18;;;6.60;;
61473;SDS011;53694;49.784;30.150;2022-12-18T06:00:12;14.09;;;6.06;;
61473;SDS011;53694;49.784;30.150;2022-12-18T06:01:16;13.48;;;6.42;;
61473;SDS011;53694;49.784;30.150;2022-12-18T06:02:19;14.16;;;6.71;;
61473;SDS011;53694;49.784;30.150;2022-12-18T06:03:21;14.99;;;7.24;;
61473;SDS011;53694;49.784;30.150;2022-12-18T06:04:22;16.63;;;8.26;;
61473;SDS011;53694;49.784;30.150;2022-12-18T06:05:24;18.94;;;9.34;;
61473;SDS011;53694;49.784;30.150;2022-12-18T06:06:26;15.53;;;8.31;;
61473;SDS011;53694;49.784;30.150;2022-12-18T06:07:28;16.60;;;8.03;;
61473;SDS011;53694;49.784;30.150;2022-12-18T06:08:30;17.49;;;8.82;;
61473;SDS011;53694;49.784;30.150;2022-12-18T06:09:32;18.42;;;8.51;;
61473;SDS011;53694;49.784;30.150;2022-12-18T06:10:33;17.09;;;8.36;;
61473;SDS011;53694;49.784;30.150;2022-12-18T06:11:36;15.88;;;7.63;;
61473;SDS011;53694;49.784;30.150;2022-12-18T06:12:38;18.91;;;9.30;;
61473;SDS011;53694;49.784;30.150;2022-12-18T06:13:40;16.64;;;8.17;;
61473;SDS011;53694;49.784;30.150;2022-12-18T06:14:41;12.48;;;6.26;;
61473;SDS011;53694;49.784;30.150;2022-12-18T06:15:43;15.10;;;6.54;;
61473;SDS011;53694;49.784;30.150;2022-12-18T06:16:44;13.31;;;6.13;;
61473;SDS011;53694;49.784;30.150;2022-12-18T06:17:46;13.56;;;6.39;;
61473;SDS011;53694;49.784;30.150;2022-12-18T06:18:48;14.93;;;6.63;;
61473;SDS011;53694;49.784;30.150;2022-12-18T06:19:49;11.19;;;6.54;;
61473;SDS011;53694;49.784;30.150;2022-12-18T06:21:00;14.32;;;6.39;;
61473;SDS011;53694;49.784;30.150;2022-12-18T06:21:58;14.21;;;7.22;;
61473;SDS011;53694;49.784;30.150;2022-12-18T06:22:59;13.61;;;7.01;;
61473;SDS011;53694;49.784;30.150;2022-12-18T06:24:01;13.80;;;7.11;;
61473;SDS011;53694;49.784;30.150;2022-12-18T06:25:03;15.68;;;7.01;;
61473;SDS011;53694;49.784;30.150;2022-12-18T06:26:06;16.71;;;7.53;;
61473;SDS011;53694;49.784;30.150;2022-12-18T06:27:10;15.82;;;7.94;;
61473;SDS011;53694;49.784;30.150;2022-12-18T06:28:11;13.94;;;6.87;;
61473;SDS011;53694;49.784;30.150;2022-12-18T06:29:13;14.16;;;7.41;;
61473;SDS011;53694;49.784;30.150;2022-12-18T06:30:15;15.97;;;7.33;;
61473;SDS011;53694;49.784;30.150;2022-12-18T06:31:16;16.11;;;7.98;;
61473;SDS011;53694;49.784;30.150;2022-12-18T06:32:18;16.18;;;8.95;;
61473;SDS011;53694;49.784;30.150;2022-12-18T06:33:20;18.91;;;8.99;;
61473;SDS011;53694;49.784;30.150;2022-12-18T06:34:21;22.64;;;10.06;;
61473;SDS011;53694;49.784;30.150;2022-12-18T06:35:23;21.05;;;9.03;;
61473;SDS011;53694;49.784;30.150;2022-12-18T06:36:25;23.52;;;8.57;;
61473;SDS011;53694;49.784;30.150;2022-12-18T06:37:26;13.75;;;6.89;;
61473;SDS011;53694;49.784;30.150;2022-12-18T06:38:28;13.22;;;6.09;;
61473;SDS011;53694;49.784;30.150;2022-12-18T06:39:29;11.99;;;5.69;;
61473;SDS011;53694;49.784;30.150;2022-12-18T06:40:31;13.51;;;6.40;;
61473;SDS011;53694;49.784;30.150;2022-12-18T06:41:33;13.60;;;6.18;;
61473;SDS011;53694;49.784;30.150;2022-12-18T06:42:34;12.73;;;6.62;;
61473;SDS011;53694;49.784;30.150;2022-12-18T06:43:36;13.29;;;6.48;;
61473;SDS011;53694;49.784;30.150;2022-12-18T06:44:37;14.90;;;6.76;;
61473;SDS011;53694;49.784;30.150;2022-12-18T06:45:39;16.40;;;8.08;;
61473;SDS011;53694;49.784;30.150;2022-12-18T06:46:41;15.95;;;8.41;;
61473;SDS011;53694;49.784;30.150;2022-12-18T06:47:43;17.12;;;8.42;;
61473;SDS011;53694;49.784;30.150;2022-12-18T06:48:48;22.33;;;8.93;;
61473;SDS011;53694;49.784;30.150;2022-12-18T06:49:51;19.07;;;9.32;;
61473;SDS011;53694;49.784;30.150;2022-12-18T06:50:52;16.95;;;8.71;;
61473;SDS011;53694;49.784;30.150;2022-12-18T06:51:54;20.71;;;9.81;;
61473;SDS011;53694;49.784;30.150;2022-12-18T06:52:56;17.15;;;8.68;;
61473;SDS011;53694;49.784;30.150;2022-12-18T06:53:57;16.43;;;8.24;;
61473;SDS011;53694;49.784;30.150;2022-12-18T06:54:59;16.18;;;7.61;;
61473;SDS011;53694;49.784;30.150;2022-12-18T06:56:05;15.39;;;6.45;;
61473;SDS011;53694;49.784;30.150;2022-12-18T06:57:04;20.20;;;7.63;;
61473;SDS011;53694;49.784;30.150;2022-12-18T06:58:06;14.31;;;6.42;;
61473;SDS011;53694;49.784;30.150;2022-12-18T06:59:07;14.64;;;6.58;;
61473;SDS011;53694;49.784;30.150;2022-12-18T07:00:10;15.61;;;6.90;;
61473;SDS011;53694;49.784;30.150;2022-12-18T07:01:13;15.03;;;7.43;;
61473;SDS011;53694;49.784;30.150;2022-12-18T07:02:14;16.07;;;7.56;;
61473;SDS011;53694;49.784;30.150;2022-12-18T07:03:16;17.44;;;8.14;;
61473;SDS011;53694;49.784;30.150;2022-12-18T07:04:17;17.42;;;8.11;;
61473;SDS011;53694;49.784;30.150;2022-12-18T07:05:19;16.58;;;8.06;;
61473;SDS011;53694;49.784;30.150;2022-12-18T07:06:21;17.98;;;8.33;;
61473;SDS011;53694;49.784;30.150;2022-12-18T07:07:24;17.81;;;9.26;;
61473;SDS011;53694;49.784;30.150;2022-12-18T07:08:26;20.67;;;8.52;;
61473;SDS011;53694;49.784;30.150;2022-12-18T07:09:27;17.04;;;8.40;;
61473;SDS011;53694;49.784;30.150;2022-12-18T07:10:29;16.23;;;7.71;;
61473;SDS011;53694;49.784;30.150;2022-12-18T07:11:34;17.04;;;7.31;;
61473;SDS011;53694;49.784;30.150;2022-12-18T07:12:36;15.33;;;7.51;;
61473;SDS011;53694;49.784;30.150;2022-12-18T07:13:37;19.66;;;8.80;;
61473;SDS011;53694;49.784;30.150;2022-12-18T07:14:39;19.89;;;8.58;;
61473;SDS011;53694;49.784;30.150;2022-12-18T07:15:40;17.74;;;8.33;;
61473;SDS011;53694;49.784;30.150;2022-12-18T07:16:42;17.16;;;7.34;;
61473;SDS011;53694;49.784;30.150;2022-12-18T07:17:43;13.14;;;6.34;;
61473;SDS011;53694;49.784;30.150;2022-12-18T07:18:45;16.71;;;5.85;;
61473;SDS011;53694;49.784;30.150;2022-12-18T07:19:46;15.25;;;5.79;;
61473;SDS011;53694;49.784;30.150;2022-12-18T07:20:48;11.96;;;5.77;;
61473;SDS011;53694;49.784;30.150;2022-12-18T07:21:50;14.49;;;6.51;;
61473;SDS011;53694;49.784;30.150;2022-12-18T07:22:52;12.41;;;6.33;;
61473;SDS011;53694;49.784;30.150;2022-12-18T07:23:53;13.25;;;6.76;;
61473;SDS011;53694;49.784;30.150;2022-12-18T07:24:55;13.54;;;6.95;;
61473;SDS011;53694;49.784;30.150;2022-12-18T07:26:00;14.23;;;7.09;;
61473;SDS011;53694;49.784;30.150;2022-12-18T07:27:03;13.65;;;6.82;;
61473;SDS011;53694;49.784;30.150;2022-12-18T07:28:04;17.06;;;7.63;;
61473;SDS011;53694;49.784;30.150;2022-12-18T07:29:06;14.09;;;6.71;;
61473;SDS011;53694;49.784;30.150;2022-12-18T07:30:08;16.66;;;7.83;;
61473;SDS011;53694;49.784;30.150;2022-12-18T07:31:12;16.02;;;8.83;;
61473;SDS011;53694;49.784;30.150;2022-12-18T07:32:15;15.56;;;7.88;;
61473;SDS011;53694;49.784;30.150;2022-12-18T07:33:17;16.55;;;7.13;;
61473;SDS011;53694;49.784;30.150;2022-12-18T07:34:18;16.66;;;7.52;;
61473;SDS011;53694;49.784;30.150;2022-12-18T07:35:20;16.14;;;8.25;;
61473;SDS011;53694;49.784;30.150;2022-12-18T07:36:22;15.82;;;7.57;;
61473;SDS011;53694;49.784;30.150;2022-12-18T07:37:23;14.42;;;6.83;;
61473;SDS011;53694;49.784;30.150;2022-12-18T07:38:25;10.06;;;4.72;;
61473;SDS011;53694;49.784;30.150;2022-12-18T07:39:26;13.55;;;5.84;;
61473;SDS011;53694;49.784;30.150;2022-12-18T07:40:28;11.89;;;5.86;;
61473;SDS011;53694;49.784;30.150;2022-12-18T07:41:29;10.16;;;4.95;;
61473;SDS011;53694;49.784;30.150;2022-12-18T07:42:31;10.78;;;4.94;;
61473;SDS011;53694;49.784;30.150;2022-12-18T07:43:33;12.14;;;6.20;;
61473;SDS011;53694;49.784;30.150;2022-12-18T07:44:35;14.76;;;7.20;;
61473;SDS011;53694;49.784;30.150;2022-12-18T07:45:37;13.38;;;5.75;;
61473;SDS011;53694;49.784;30.150;2022-12-18T07:46:38;12.94;;;6.50;;
61473;SDS011;53694;49.784;30.150;2022-12-18T07:47:40;12.81;;;6.62;;
61473;SDS011;53694;49.784;30.150;2022-12-18T07:48:41;13.62;;;6.39;;
61473;SDS011;53694;49.784;30.150;2022-12-18T07:49:44;12.31;;;5.55;;
61473;SDS011;53694;49.784;30.150;2022-12-18T07:50:45;10.51;;;5.89;;
61473;SDS011;53694;49.784;30.150;2022-12-18T07:51:47;12.76;;;6.63;;
61473;SDS011;53694;49.784;30.150;2022-12-18T07:52:48;12.80;;;6.66;;
61473;SDS011;53694;49.784;30.150;2022-12-18T07:53:49;15.40;;;7.55;;
61473;SDS011;53694;49.784;30.150;2022-12-18T07:54:51;11.00;;;5.88;;
61473;SDS011;53694;49.784;30.150;2022-12-18T07:55:56;12.63;;;7.22;;
61473;SDS011;53694;49.784;30.150;2022-12-18T07:56:59;14.56;;;7.32;;
61473;SDS011;53694;49.784;30.150;2022-12-18T07:58:01;12.38;;;6.73;;
61473;SDS011;53694;49.784;30.150;2022-12-18T07:59:04;13.22;;;6.71;;
61473;SDS011;53694;49.784;30.150;2022-12-18T08:00:06;17.05;;;8.15;;
61473;SDS011;53694;49.784;30.150;2022-12-18T08:01:09;12.77;;;6.79;;
61473;SDS011;53694;49.784;30.150;2022-12-18T08:02:12;17.25;;;7.20;;
61473;SDS011;53694;49.784;30.150;2022-12-18T08:03:14;11.37;;;5.75;;
61473;SDS011;53694;49.784;30.150;2022-12-18T08:04:16;13.36;;;6.02;;
61473;SDS011;53694;49.784;30.150;2022-12-18T08:05:18;12.90;;;5.71;;
61473;SDS011;53694;49.784;30.150;2022-12-18T08:06:20;13.31;;;5.11;;
61473;SDS011;53694;49.784;30.150;2022-12-18T08:07:22;10.77;;;4.74;;
61473;SDS011;53694;49.784;30.150;2022-12-18T08:08:23;10.99;;;5.07;;
61473;SDS011;53694;49.784;30.150;2022-12-18T08:09:25;12.52;;;6.05;;
61473;SDS011;53694;49.784;30.150;2022-12-18T08:10:27;12.93;;;6.11;;
61473;SDS011;53694;49.784;30.150;2022-12-18T08:11:28;13.51;;;6.01;;
61473;SDS011;53694;49.784;30.150;2022-12-18T08:12:30;14.97;;;7.57;;
61473;SDS011;53694;49.784;30.150;2022-12-18T08:13:32;18.24;;;8.75;;
61473;SDS011;53694;49.784;30.150;2022-12-18T08:14:33;15.44;;;7.73;;
61473;SDS011;53694;49.784;30.150;2022-12-18T08:15:35;16.22;;;7.14;;
61473;SDS011;53694;49.784;30.150;2022-12-18T08:16:36;18.36;;;8.68;;
61473;SDS011;53694;49.784;30.150;2022-12-18T08:17:38;17.71;;;8.89;;
61473;SDS011;53694;49.784;30.150;2022-12-18T08:18:40;19.17;;;8.89;;
61473;SDS011;53694;49.784;30.150;2022-12-18T08:19:41;22.31;;;10.12;;
61473;SDS011;53694;49.784;30.150;2022-12-18T08:20:43;15.97;;;7.65;;
61473;SDS011;53694;49.784;30.150;2022-12-18T08:21:44;18.20;;;7.77;;
61473;SDS011;53694;49.784;30.150;2022-12-18T08:22:46;18.09;;;8.46;;
61473;SDS011;53694;49.784;30.150;2022-12-18T08:23:47;17.48;;;6.77;;
61473;SDS011;53694;49.784;30.150;2022-12-18T08:24:50;16.59;;;7.49;;
61473;SDS011;53694;49.784;30.150;2022-12-18T08:25:51;13.87;;;6.65;;
61473;SDS011;53694;49.784;30.150;2022-12-18T08:26:53;16.69;;;7.75;;
61473;SDS011;53694;49.784;30.150;2022-12-18T08:27:55;15.34;;;7.21;;
61473;SDS011;53694;49.784;30.150;2022-12-18T08:28:57;15.80;;;7.39;;
61473;SDS011;53694;49.784;30.150;2022-12-18T08:30:00;15.29;;;7.62;;
61473;SDS011;53694;49.784;30.150;2022-12-18T08:31:01;19.29;;;8.50;;
61473;SDS011;53694;49.784;30.150;2022-12-18T08:32:04;17.10;;;8.21;;
61473;SDS011;53694;49.784;30.150;2022-12-18T08:33:05;20.20;;;8.93;;
61473;SDS011;53694;49.784;30.150;2022-12-18T08:34:07;14.84;;;8.04;;
61473;SDS011;53694;49.784;30.150;2022-12-18T08:35:09;13.43;;;7.07;;
61473;SDS011;53694;49.784;30.150;2022-12-18T08:36:10;17.80;;;8.27;;
61473;SDS011;53694;49.784;30.150;2022-12-18T08:37:12;17.84;;;8.94;;
61473;SDS011;53694;49.784;30.150;2022-12-18T08:38:13;16.01;;;7.69;;
61473;SDS011;53694;49.784;30.150;2022-12-18T08:39:15;14.15;;;7.29;;
61473;SDS011;53694;49.784;30.150;2022-12-18T08:40:17;17.87;;;8.03;;
61473;SDS011;53694;49.784;30.150;2022-12-18T08:41:18;16.69;;;9.02;;
61473;SDS011;53694;49.784;30.150;2022-12-18T08:42:20;19.40;;;8.58;;
61473;SDS011;53694;49.784;30.150;2022-12-18T08:43:22;15.02;;;7.16;;
61473;SDS011;53694;49.784;30.150;2022-12-18T08:44:23;14.04;;;7.54;;